sim
Sign-in with your pilot id or email,
or register
Callsign
Passwort

Schedule Details

Flight Number: DLH2781 (2)
Departure: Hurghada International Airport (HEGN) at 11:30
Arrival: Munich Airport (EDDM) at 16:10
Route: Lufthansa Passenger Schedule. Enter filed route here before submitting Pirep.

Weather Information
Getting current METAR information for HEGN 201700Z 33009KT CAVOK 32/21 Q1004 NOSIG
Getting current METAR information for EDDM 201720Z 03003KT 360V060 CAVOK 19/11 Q1015 NOSIG

Schedule Frequency

Route Map